sensor_id;sensor_type;location;lat;lon;timestamp;P1;durP1;ratioP1;P2;durP2;ratioP2
2299;SDS011;1158;48.750;9.078;2022-11-20T00:00:18;10.73;;;7.07;;
2299;SDS011;1158;48.750;9.078;2022-11-20T00:02:45;11.17;;;7.13;;
2299;SDS011;1158;48.750;9.078;2022-11-20T00:05:13;11.43;;;7.30;;
2299;SDS011;1158;48.750;9.078;2022-11-20T00:07:40;12.37;;;7.67;;
2299;SDS011;1158;48.750;9.078;2022-11-20T00:10:07;17.90;;;7.40;;
2299;SDS011;1158;48.750;9.078;2022-11-20T00:12:34;10.13;;;7.30;;
2299;SDS011;1158;48.750;9.078;2022-11-20T00:15:01;11.00;;;7.40;;
2299;SDS011;1158;48.750;9.078;2022-11-20T00:17:28;11.60;;;7.07;;
2299;SDS011;1158;48.750;9.078;2022-11-20T00:19:54;11.93;;;7.57;;
2299;SDS011;1158;48.750;9.078;2022-11-20T00:22:22;9.87;;;6.97;;
2299;SDS011;1158;48.750;9.078;2022-11-20T00:24:49;11.50;;;7.80;;
2299;SDS011;1158;48.750;9.078;2022-11-20T00:27:16;12.97;;;8.73;;
2299;SDS011;1158;48.750;9.078;2022-11-20T00:29:43;10.50;;;7.57;;
2299;SDS011;1158;48.750;9.078;2022-11-20T00:32:09;12.53;;;7.70;;
2299;SDS011;1158;48.750;9.078;2022-11-20T00:34:36;19.53;;;7.80;;
2299;SDS011;1158;48.750;9.078;2022-11-20T00:37:03;11.53;;;7.33;;
2299;SDS011;1158;48.750;9.078;2022-11-20T00:39:31;11.53;;;8.13;;
2299;SDS011;1158;48.750;9.078;2022-11-20T00:41:57;11.03;;;7.00;;
2299;SDS011;1158;48.750;9.078;2022-11-20T00:44:24;13.50;;;7.63;;
2299;SDS011;1158;48.750;9.078;2022-11-20T00:46:51;11.20;;;7.50;;
2299;SDS011;1158;48.750;9.078;2022-11-20T00:49:18;12.73;;;8.00;;
2299;SDS011;1158;48.750;9.078;2022-11-20T00:51:45;14.50;;;7.80;;
2299;SDS011;1158;48.750;9.078;2022-11-20T00:54:11;11.63;;;7.43;;
2299;SDS011;1158;48.750;9.078;2022-11-20T00:56:39;13.80;;;8.13;;
2299;SDS011;1158;48.750;9.078;2022-11-20T00:59:08;11.83;;;7.60;;
2299;SDS011;1158;48.750;9.078;2022-11-20T01:01:35;12.33;;;7.57;;
2299;SDS011;1158;48.750;9.078;2022-11-20T01:04:03;13.00;;;7.83;;
2299;SDS011;1158;48.750;9.078;2022-11-20T01:06:30;10.63;;;7.80;;
2299;SDS011;1158;48.750;9.078;2022-11-20T01:08:59;9.40;;;6.83;;
2299;SDS011;1158;48.750;9.078;2022-11-20T01:11:30;12.37;;;6.90;;
2299;SDS011;1158;48.750;9.078;2022-11-20T01:13:59;15.03;;;8.03;;
2299;SDS011;1158;48.750;9.078;2022-11-20T01:16:28;11.87;;;7.60;;
2299;SDS011;1158;48.750;9.078;2022-11-20T01:18:57;10.13;;;7.43;;
2299;SDS011;1158;48.750;9.078;2022-11-20T01:21:25;11.33;;;7.27;;
2299;SDS011;1158;48.750;9.078;2022-11-20T01:23:54;13.03;;;6.80;;
2299;SDS011;1158;48.750;9.078;2022-11-20T01:26:22;11.87;;;6.10;;
2299;SDS011;1158;48.750;9.078;2022-11-20T01:28:50;10.70;;;7.20;;
2299;SDS011;1158;48.750;9.078;2022-11-20T01:31:19;10.90;;;8.03;;
2299;SDS011;1158;48.750;9.078;2022-11-20T01:33:47;10.03;;;7.10;;
2299;SDS011;1158;48.750;9.078;2022-11-20T01:36:16;9.90;;;6.90;;
2299;SDS011;1158;48.750;9.078;2022-11-20T01:38:44;11.20;;;6.67;;
2299;SDS011;1158;48.750;9.078;2022-11-20T01:41:11;11.40;;;6.70;;
2299;SDS011;1158;48.750;9.078;2022-11-20T01:44:00;8.67;;;6.30;;
2299;SDS011;1158;48.750;9.078;2022-11-20T01:46:28;9.43;;;6.10;;
2299;SDS011;1158;48.750;9.078;2022-11-20T01:48:57;9.80;;;6.27;;
2299;SDS011;1158;48.750;9.078;2022-11-20T01:51:28;11.07;;;6.50;;
2299;SDS011;1158;48.750;9.078;2022-11-20T01:53:58;12.63;;;5.90;;
2299;SDS011;1158;48.750;9.078;2022-11-20T01:56:28;8.47;;;6.07;;
2299;SDS011;1158;48.750;9.078;2022-11-20T01:58:59;16.27;;;8.67;;
2299;SDS011;1158;48.750;9.078;2022-11-20T02:01:29;7.50;;;5.70;;
2299;SDS011;1158;48.750;9.078;2022-11-20T02:03:56;12.60;;;7.07;;
2299;SDS011;1158;48.750;9.078;2022-11-20T02:06:24;11.20;;;6.50;;
2299;SDS011;1158;48.750;9.078;2022-11-20T02:08:54;9.40;;;6.53;;
2299;SDS011;1158;48.750;9.078;2022-11-20T02:11:21;11.90;;;7.20;;
2299;SDS011;1158;48.750;9.078;2022-11-20T02:13:48;10.13;;;6.73;;
2299;SDS011;1158;48.750;9.078;2022-11-20T02:16:15;7.97;;;5.77;;
2299;SDS011;1158;48.750;9.078;2022-11-20T02:18:47;7.80;;;6.07;;
2299;SDS011;1158;48.750;9.078;2022-11-20T02:21:17;8.50;;;6.03;;
2299;SDS011;1158;48.750;9.078;2022-11-20T02:26:39;9.07;;;5.30;;
2299;SDS011;1158;48.750;9.078;2022-11-20T02:29:10;10.90;;;6.27;;
2299;SDS011;1158;48.750;9.078;2022-11-20T02:31:37;9.17;;;6.30;;
2299;SDS011;1158;48.750;9.078;2022-11-20T02:34:06;12.33;;;6.60;;
2299;SDS011;1158;48.750;9.078;2022-11-20T02:36:34;8.30;;;5.80;;
2299;SDS011;1158;48.750;9.078;2022-11-20T02:39:02;10.27;;;6.27;;
2299;SDS011;1158;48.750;9.078;2022-11-20T02:41:31;11.50;;;5.90;;
2299;SDS011;1158;48.750;9.078;2022-11-20T02:43:59;13.70;;;6.37;;
2299;SDS011;1158;48.750;9.078;2022-11-20T02:46:26;8.60;;;5.60;;
2299;SDS011;1158;48.750;9.078;2022-11-20T02:48:53;12.43;;;6.03;;
2299;SDS011;1158;48.750;9.078;2022-11-20T02:51:20;8.10;;;6.27;;
2299;SDS011;1158;48.750;9.078;2022-11-20T02:53:47;10.80;;;6.40;;
2299;SDS011;1158;48.750;9.078;2022-11-20T02:56:13;12.07;;;6.27;;
2299;SDS011;1158;48.750;9.078;2022-11-20T02:58:42;10.23;;;6.67;;
2299;SDS011;1158;48.750;9.078;2022-11-20T03:01:08;8.47;;;5.97;;
2299;SDS011;1158;48.750;9.078;2022-11-20T03:03:35;10.20;;;6.03;;
2299;SDS011;1158;48.750;9.078;2022-11-20T03:06:02;7.70;;;5.83;;
2299;SDS011;1158;48.750;9.078;2022-11-20T03:08:29;14.40;;;6.60;;
2299;SDS011;1158;48.750;9.078;2022-11-20T03:10:56;10.93;;;6.50;;
2299;SDS011;1158;48.750;9.078;2022-11-20T03:13:24;10.87;;;6.40;;
2299;SDS011;1158;48.750;9.078;2022-11-20T03:15:52;20.97;;;6.63;;
2299;SDS011;1158;48.750;9.078;2022-11-20T03:18:19;9.93;;;5.93;;
2299;SDS011;1158;48.750;9.078;2022-11-20T03:20:46;10.23;;;5.80;;
2299;SDS011;1158;48.750;9.078;2022-11-20T03:23:13;11.70;;;5.57;;
2299;SDS011;1158;48.750;9.078;2022-11-20T03:25:39;7.50;;;5.93;;
2299;SDS011;1158;48.750;9.078;2022-11-20T03:28:06;9.30;;;5.90;;
2299;SDS011;1158;48.750;9.078;2022-11-20T03:30:33;10.30;;;6.50;;
2299;SDS011;1158;48.750;9.078;2022-11-20T03:33:02;8.50;;;6.10;;
2299;SDS011;1158;48.750;9.078;2022-11-20T03:35:29;10.63;;;7.00;;
2299;SDS011;1158;48.750;9.078;2022-11-20T03:37:56;9.10;;;5.77;;
2299;SDS011;1158;48.750;9.078;2022-11-20T03:40:23;8.63;;;6.70;;
2299;SDS011;1158;48.750;9.078;2022-11-20T03:42:50;12.20;;;7.93;;
2299;SDS011;1158;48.750;9.078;2022-11-20T03:45:17;10.43;;;7.00;;
2299;SDS011;1158;48.750;9.078;2022-11-20T03:47:44;10.10;;;7.33;;
2299;SDS011;1158;48.750;9.078;2022-11-20T03:50:13;9.93;;;7.37;;
2299;SDS011;1158;48.750;9.078;2022-11-20T03:52:40;11.50;;;7.40;;
2299;SDS011;1158;48.750;9.078;2022-11-20T03:55:07;18.80;;;7.43;;
2299;SDS011;1158;48.750;9.078;2022-11-20T03:57:34;13.07;;;7.30;;
2299;SDS011;1158;48.750;9.078;2022-11-20T04:00:01;12.20;;;7.50;;
2299;SDS011;1158;48.750;9.078;2022-11-20T04:02:28;10.60;;;7.03;;
2299;SDS011;1158;48.750;9.078;2022-11-20T04:04:55;12.07;;;7.07;;
2299;SDS011;1158;48.750;9.078;2022-11-20T04:07:23;13.47;;;7.63;;
2299;SDS011;1158;48.750;9.078;2022-11-20T04:09:50;15.70;;;7.43;;
2299;SDS011;1158;48.750;9.078;2022-11-20T04:12:17;12.23;;;7.63;;
2299;SDS011;1158;48.750;9.078;2022-11-20T04:14:43;11.07;;;7.90;;
2299;SDS011;1158;48.750;9.078;2022-11-20T04:17:10;13.47;;;7.63;;
2299;SDS011;1158;48.750;9.078;2022-11-20T04:19:37;18.90;;;8.50;;
2299;SDS011;1158;48.750;9.078;2022-11-20T04:22:03;16.53;;;7.57;;
2299;SDS011;1158;48.750;9.078;2022-11-20T04:24:32;9.33;;;7.00;;
2299;SDS011;1158;48.750;9.078;2022-11-20T04:26:58;11.13;;;8.03;;
2299;SDS011;1158;48.750;9.078;2022-11-20T04:29:25;16.57;;;7.40;;
2299;SDS011;1158;48.750;9.078;2022-11-20T04:31:52;11.80;;;8.20;;
2299;SDS011;1158;48.750;9.078;2022-11-20T04:34:18;11.90;;;8.13;;
2299;SDS011;1158;48.750;9.078;2022-11-20T04:36:45;13.70;;;7.80;;
2299;SDS011;1158;48.750;9.078;2022-11-20T04:39:12;16.77;;;8.10;;
2299;SDS011;1158;48.750;9.078;2022-11-20T04:41:41;14.13;;;7.93;;
2299;SDS011;1158;48.750;9.078;2022-11-20T04:44:08;10.83;;;7.50;;
2299;SDS011;1158;48.750;9.078;2022-11-20T04:46:36;11.73;;;8.07;;
2299;SDS011;1158;48.750;9.078;2022-11-20T04:49:05;13.13;;;7.30;;
2299;SDS011;1158;48.750;9.078;2022-11-20T04:51:33;13.20;;;6.93;;
2299;SDS011;1158;48.750;9.078;2022-11-20T04:54:00;12.40;;;7.83;;
2299;SDS011;1158;48.750;9.078;2022-11-20T04:56:27;11.23;;;7.33;;
2299;SDS011;1158;48.750;9.078;2022-11-20T04:58:55;12.23;;;7.30;;
2299;SDS011;1158;48.750;9.078;2022-11-20T05:01:26;11.60;;;6.90;;
2299;SDS011;1158;48.750;9.078;2022-11-20T05:03:53;9.07;;;6.60;;
2299;SDS011;1158;48.750;9.078;2022-11-20T05:06:20;10.47;;;6.60;;
2299;SDS011;1158;48.750;9.078;2022-11-20T05:08:47;13.83;;;7.40;;
2299;SDS011;1158;48.750;9.078;2022-11-20T05:11:16;12.63;;;7.30;;
2299;SDS011;1158;48.750;9.078;2022-11-20T05:13:44;12.50;;;6.80;;
2299;SDS011;1158;48.750;9.078;2022-11-20T05:16:13;8.77;;;5.73;;
2299;SDS011;1158;48.750;9.078;2022-11-20T05:18:42;8.07;;;6.20;;
2299;SDS011;1158;48.750;9.078;2022-11-20T05:21:10;10.10;;;7.33;;
2299;SDS011;1158;48.750;9.078;2022-11-20T05:23:38;10.60;;;6.67;;
2299;SDS011;1158;48.750;9.078;2022-11-20T05:26:05;11.23;;;7.00;;
2299;SDS011;1158;48.750;9.078;2022-11-20T05:28:34;10.10;;;6.73;;
2299;SDS011;1158;48.750;9.078;2022-11-20T05:31:04;10.30;;;6.70;;
2299;SDS011;1158;48.750;9.078;2022-11-20T05:33:33;11.73;;;6.83;;
2299;SDS011;1158;48.750;9.078;2022-11-20T05:36:00;8.67;;;6.20;;
2299;SDS011;1158;48.750;9.078;2022-11-20T05:38:27;13.90;;;6.33;;
2299;SDS011;1158;48.750;9.078;2022-11-20T05:40:54;8.37;;;5.80;;
2299;SDS011;1158;48.750;9.078;2022-11-20T05:43:21;7.90;;;5.50;;
2299;SDS011;1158;48.750;9.078;2022-11-20T05:45:53;8.20;;;5.73;;
2299;SDS011;1158;48.750;9.078;2022-11-20T05:48:20;10.10;;;6.17;;
2299;SDS011;1158;48.750;9.078;2022-11-20T05:50:48;10.30;;;6.30;;
2299;SDS011;1158;48.750;9.078;2022-11-20T05:53:15;9.73;;;5.87;;
2299;SDS011;1158;48.750;9.078;2022-11-20T05:55:42;10.00;;;6.00;;
2299;SDS011;1158;48.750;9.078;2022-11-20T05:58:08;8.70;;;5.10;;
2299;SDS011;1158;48.750;9.078;2022-11-20T06:00:35;7.33;;;5.80;;
2299;SDS011;1158;48.750;9.078;2022-11-20T06:03:02;14.90;;;6.77;;
2299;SDS011;1158;48.750;9.078;2022-11-20T06:05:29;9.50;;;5.70;;
2299;SDS011;1158;48.750;9.078;2022-11-20T06:07:57;9.37;;;5.70;;
2299;SDS011;1158;48.750;9.078;2022-11-20T06:10:26;9.43;;;4.80;;
2299;SDS011;1158;48.750;9.078;2022-11-20T06:12:52;6.60;;;4.77;;
2299;SDS011;1158;48.750;9.078;2022-11-20T06:15:19;7.60;;;6.17;;
2299;SDS011;1158;48.750;9.078;2022-11-20T06:17:46;7.90;;;5.63;;
2299;SDS011;1158;48.750;9.078;2022-11-20T06:20:13;9.90;;;5.73;;
2299;SDS011;1158;48.750;9.078;2022-11-20T06:22:39;7.47;;;4.50;;
2299;SDS011;1158;48.750;9.078;2022-11-20T06:25:08;8.27;;;5.10;;
2299;SDS011;1158;48.750;9.078;2022-11-20T06:27:34;8.23;;;5.10;;
2299;SDS011;1158;48.750;9.078;2022-11-20T06:30:01;8.20;;;4.83;;
2299;SDS011;1158;48.750;9.078;2022-11-20T06:32:28;8.20;;;4.83;;
2299;SDS011;1158;48.750;9.078;2022-11-20T06:34:55;6.57;;;4.63;;
2299;SDS011;1158;48.750;9.078;2022-11-20T06:37:22;6.23;;;4.70;;
2299;SDS011;1158;48.750;9.078;2022-11-20T06:39:48;5.77;;;4.70;;
2299;SDS011;1158;48.750;9.078;2022-11-20T06:42:17;6.00;;;4.27;;
2299;SDS011;1158;48.750;9.078;2022-11-20T06:44:43;6.27;;;4.50;;
2299;SDS011;1158;48.750;9.078;2022-11-20T06:47:10;7.20;;;4.33;;
2299;SDS011;1158;48.750;9.078;2022-11-20T06:49:37;7.20;;;4.73;;
2299;SDS011;1158;48.750;9.078;2022-11-20T06:52:04;6.73;;;4.53;;
2299;SDS011;1158;48.750;9.078;2022-11-20T06:54:31;8.10;;;4.67;;
2299;SDS011;1158;48.750;9.078;2022-11-20T06:56:57;5.27;;;3.97;;
2299;SDS011;1158;48.750;9.078;2022-11-20T06:59:25;7.30;;;4.00;;
2299;SDS011;1158;48.750;9.078;2022-11-20T07:01:52;7.27;;;4.50;;
2299;SDS011;1158;48.750;9.078;2022-11-20T07:04:19;6.37;;;4.33;;
2299;SDS011;1158;48.750;9.078;2022-11-20T07:06:46;7.73;;;4.50;;
2299;SDS011;1158;48.750;9.078;2022-11-20T07:09:12;7.93;;;4.63;;
2299;SDS011;1158;48.750;9.078;2022-11-20T07:11:39;6.30;;;4.20;;
2299;SDS011;1158;48.750;9.078;2022-11-20T07:14:06;8.13;;;4.27;;
2299;SDS011;1158;48.750;9.078;2022-11-20T07:16:34;5.23;;;4.10;;
2299;SDS011;1158;48.750;9.078;2022-11-20T07:19:01;6.93;;;4.13;;
2299;SDS011;1158;48.750;9.078;2022-11-20T07:21:28;6.30;;;4.00;;
2299;SDS011;1158;48.750;9.078;2022-11-20T07:23:54;5.23;;;4.60;;
2299;SDS011;1158;48.750;9.078;2022-11-20T07:26:22;5.90;;;4.27;;
2299;SDS011;1158;48.750;9.078;2022-11-20T07:28:48;9.57;;;4.30;;
2299;SDS011;1158;48.750;9.078;2022-11-20T07:31:15;4.67;;;3.73;;
2299;SDS011;1158;48.750;9.078;2022-11-20T07:33:43;7.43;;;4.60;;
2299;SDS011;1158;48.750;9.078;2022-11-20T07:36:10;6.17;;;4.10;;
2299;SDS011;1158;48.750;9.078;2022-11-20T07:38:36;5.70;;;3.30;;
2299;SDS011;1158;48.750;9.078;2022-11-20T07:41:03;5.57;;;3.97;;
2299;SDS011;1158;48.750;9.078;2022-11-20T07:43:30;4.97;;;3.90;;
2299;SDS011;1158;48.750;9.078;2022-11-20T07:45:58;6.30;;;4.10;;
2299;SDS011;1158;48.750;9.078;2022-11-20T07:48:25;4.40;;;3.53;;
2299;SDS011;1158;48.750;9.078;2022-11-20T07:50:54;5.93;;;3.83;;
2299;SDS011;1158;48.750;9.078;2022-11-20T07:53:21;4.90;;;3.67;;
2299;SDS011;1158;48.750;9.078;2022-11-20T07:55:48;5.37;;;3.07;;
2299;SDS011;1158;48.750;9.078;2022-11-20T07:58:17;5.27;;;3.70;;
2299;SDS011;1158;48.750;9.078;2022-11-20T08:00:44;7.80;;;3.67;;
2299;SDS011;1158;48.750;9.078;2022-11-20T08:03:10;4.80;;;3.20;;
2299;SDS011;1158;48.750;9.078;2022-11-20T08:05:37;8.20;;;3.00;;
2299;SDS011;1158;48.750;9.078;2022-11-20T08:08:05;9.27;;;3.10;;
2299;SDS011;1158;48.750;9.078;2022-11-20T08:10:33;6.40;;;3.40;;
2299;SDS011;1158;48.750;9.078;2022-11-20T08:12:59;5.73;;;3.37;;
2299;SDS011;1158;48.750;9.078;2022-11-20T08:15:47;7.07;;;3.47;;
2299;SDS011;1158;48.750;9.078;2022-11-20T08:18:15;5.00;;;3.17;;
2299;SDS011;1158;48.750;9.078;2022-11-20T08:20:42;5.10;;;3.00;;
2299;SDS011;1158;48.750;9.078;2022-11-20T08:23:11;6.60;;;3.30;;
2299;SDS011;1158;48.750;9.078;2022-11-20T08:25:38;3.50;;;2.37;;
2299;SDS011;1158;48.750;9.078;2022-11-20T08:28:06;3.40;;;2.60;;
2299;SDS011;1158;48.750;9.078;2022-11-20T08:30:34;6.27;;;3.50;;
2299;SDS011;1158;48.750;9.078;2022-11-20T08:33:02;5.73;;;2.70;;
2299;SDS011;1158;48.750;9.078;2022-11-20T08:35:32;4.33;;;2.97;;
2299;SDS011;1158;48.750;9.078;2022-11-20T08:37:59;4.23;;;2.60;;
2299;SDS011;1158;48.750;9.078;2022-11-20T08:40:27;4.23;;;2.50;;
2299;SDS011;1158;48.750;9.078;2022-11-20T08:42:54;4.33;;;2.80;;
2299;SDS011;1158;48.750;9.078;2022-11-20T08:45:21;3.77;;;2.30;;
2299;SDS011;1158;48.750;9.078;2022-11-20T08:47:48;3.13;;;1.90;;
2299;SDS011;1158;48.750;9.078;2022-11-20T08:50:15;2.80;;;2.10;;
2299;SDS011;1158;48.750;9.078;2022-11-20T08:52:42;2.30;;;1.70;;
2299;SDS011;1158;48.750;9.078;2022-11-20T08:55:09;2.87;;;1.80;;
2299;SDS011;1158;48.750;9.078;2022-11-20T08:57:38;2.97;;;1.73;;
2299;SDS011;1158;48.750;9.078;2022-11-20T09:00:05;3.80;;;2.00;;
2299;SDS011;1158;48.750;9.078;2022-11-20T09:02:33;3.30;;;1.90;;
2299;SDS011;1158;48.750;9.078;2022-11-20T09:05:00;2.33;;;1.93;;
2299;SDS011;1158;48.750;9.078;2022-11-20T09:07:28;3.80;;;2.20;;
2299;SDS011;1158;48.750;9.078;2022-11-20T09:09:55;4.50;;;2.17;;
2299;SDS011;1158;48.750;9.078;2022-11-20T09:12:22;2.80;;;2.00;;
2299;SDS011;1158;48.750;9.078;2022-11-20T09:14:50;2.90;;;1.40;;
2299;SDS011;1158;48.750;9.078;2022-11-20T09:17:17;5.07;;;1.90;;
2299;SDS011;1158;48.750;9.078;2022-11-20T09:19:45;4.17;;;2.50;;
2299;SDS011;1158;48.750;9.078;2022-11-20T09:22:12;2.40;;;1.40;;
2299;SDS011;1158;48.750;9.078;2022-11-20T09:24:39;2.70;;;1.57;;
2299;SDS011;1158;48.750;9.078;2022-11-20T09:27:05;2.00;;;1.40;;
2299;SDS011;1158;48.750;9.078;2022-11-20T09:29:32;2.20;;;1.20;;
2299;SDS011;1158;48.750;9.078;2022-11-20T09:32:00;2.17;;;1.20;;
2299;SDS011;1158;48.750;9.078;2022-11-20T09:34:27;1.97;;;1.20;;
2299;SDS011;1158;48.750;9.078;2022-11-20T09:36:54;1.87;;;1.00;;
2299;SDS011;1158;48.750;9.078;2022-11-20T09:39:21;2.70;;;0.90;;
2299;SDS011;1158;48.750;9.078;2022-11-20T09:41:52;2.23;;;1.20;;
2299;SDS011;1158;48.750;9.078;2022-11-20T09:44:33;2.27;;;1.13;;
2299;SDS011;1158;48.750;9.078;2022-11-20T09:47:13;1.50;;;0.93;;
2299;SDS011;1158;48.750;9.078;2022-11-20T09:49:53;1.97;;;1.13;;
2299;SDS011;1158;48.750;9.078;2022-11-20T09:52:30;1.20;;;0.70;;
2299;SDS011;1158;48.750;9.078;2022-11-20T09:55:02;1.53;;;0.90;;
2299;SDS011;1158;48.750;9.078;2022-11-20T09:57:35;1.63;;;1.00;;
2299;SDS011;1158;48.750;9.078;2022-11-20T10:00:04;3.10;;;1.10;;
2299;SDS011;1158;48.750;9.078;2022-11-20T10:02:37;2.30;;;1.50;;
2299;SDS011;1158;48.750;9.078;2022-11-20T10:05:10;2.60;;;1.30;;
2299;SDS011;1158;48.750;9.078;2022-11-20T10:07:42;2.17;;;1.10;;
2299;SDS011;1158;48.750;9.078;2022-11-20T10:10:14;2.13;;;1.10;;
2299;SDS011;1158;48.750;9.078;2022-11-20T10:12:46;2.57;;;1.30;;
2299;SDS011;1158;48.750;9.078;2022-11-20T10:15:25;2.67;;;1.20;;
2299;SDS011;1158;48.750;9.078;2022-11-20T10:18:04;1.63;;;1.20;;
2299;SDS011;1158;48.750;9.078;2022-11-20T10:20:41;2.23;;;1.40;;
2299;SDS011;1158;48.750;9.078;2022-11-20T10:23:17;2.43;;;1.47;;
2299;SDS011;1158;48.750;9.078;2022-11-20T10:26:07;2.30;;;1.40;;
2299;SDS011;1158;48.750;9.078;2022-11-20T10:28:46;3.90;;;1.10;;
2299;SDS011;1158;48.750;9.078;2022-11-20T10:31:25;2.40;;;1.40;;
2299;SDS011;1158;48.750;9.078;2022-11-20T10:33:58;2.60;;;1.37;;
2299;SDS011;1158;48.750;9.078;2022-11-20T10:36:33;3.40;;;1.60;;
2299;SDS011;1158;48.750;9.078;2022-11-20T10:39:05;3.53;;;1.40;;
2299;SDS011;1158;48.750;9.078;2022-11-20T10:41:40;2.40;;;1.70;;
2299;SDS011;1158;48.750;9.078;2022-11-20T10:44:09;2.50;;;1.60;;
2299;SDS011;1158;48.750;9.078;2022-11-20T10:47:01;2.40;;;1.60;;
2299;SDS011;1158;48.750;9.078;2022-11-20T10:49:30;3.53;;;1.50;;
2299;SDS011;1158;48.750;9.078;2022-11-20T10:52:02;3.70;;;2.20;;
2299;SDS011;1158;48.750;9.078;2022-11-20T10:54:36;2.80;;;1.63;;
2299;SDS011;1158;48.750;9.078;2022-11-20T10:57:12;3.00;;;1.90;;
2299;SDS011;1158;48.750;9.078;2022-11-20T11:02:32;3.23;;;2.00;;
2299;SDS011;1158;48.750;9.078;2022-11-20T11:05:17;4.37;;;1.93;;
2299;SDS011;1158;48.750;9.078;2022-11-20T11:07:49;3.60;;;1.87;;
2299;SDS011;1158;48.750;9.078;2022-11-20T11:10:20;2.20;;;1.67;;
2299;SDS011;1158;48.750;9.078;2022-11-20T11:12:50;8.50;;;2.03;;
2299;SDS011;1158;48.750;9.078;2022-11-20T11:15:24;7.33;;;2.10;;
2299;SDS011;1158;48.750;9.078;2022-11-20T11:17:53;3.80;;;2.03;;
2299;SDS011;1158;48.750;9.078;2022-11-20T11:20:21;5.17;;;2.67;;
2299;SDS011;1158;48.750;9.078;2022-11-20T11:22:51;3.17;;;2.00;;
2299;SDS011;1158;48.750;9.078;2022-11-20T11:25:21;4.10;;;2.00;;
2299;SDS011;1158;48.750;9.078;2022-11-20T11:27:52;4.63;;;2.17;;
2299;SDS011;1158;48.750;9.078;2022-11-20T11:30:21;4.00;;;2.07;;
2299;SDS011;1158;48.750;9.078;2022-11-20T11:32:49;2.93;;;2.23;;
2299;SDS011;1158;48.750;9.078;2022-11-20T11:35:21;3.40;;;2.00;;
2299;SDS011;1158;48.750;9.078;2022-11-20T11:37:50;5.10;;;2.40;;
2299;SDS011;1158;48.750;9.078;2022-11-20T11:40:19;3.37;;;1.90;;
2299;SDS011;1158;48.750;9.078;2022-11-20T11:42:49;4.23;;;1.97;;
2299;SDS011;1158;48.750;9.078;2022-11-20T11:45:20;3.93;;;1.87;;
2299;SDS011;1158;48.750;9.078;2022-11-20T11:47:47;4.20;;;2.30;;
2299;SDS011;1158;48.750;9.078;2022-11-20T11:50:17;4.33;;;1.77;;
2299;SDS011;1158;48.750;9.078;2022-11-20T11:52:48;6.50;;;1.83;;
2299;SDS011;1158;48.750;9.078;2022-11-20T11:55:23;5.90;;;2.27;;
2299;SDS011;1158;48.750;9.078;2022-11-20T11:57:56;6.40;;;1.97;;
2299;SDS011;1158;48.750;9.078;2022-11-20T12:00:30;5.20;;;1.90;;
2299;SDS011;1158;48.750;9.078;2022-11-20T12:03:00;2.57;;;1.50;;
2299;SDS011;1158;48.750;9.078;2022-11-20T12:05:35;3.97;;;1.73;;
2299;SDS011;1158;48.750;9.078;2022-11-20T12:08:20;3.57;;;1.40;;
2299;SDS011;1158;48.750;9.078;2022-11-20T12:10:53;5.63;;;1.77;;
2299;SDS011;1158;48.750;9.078;2022-11-20T12:13:32;3.30;;;1.37;;
2299;SDS011;1158;48.750;9.078;2022-11-20T12:16:07;3.73;;;1.97;;
2299;SDS011;1158;48.750;9.078;2022-11-20T12:18:38;5.53;;;1.40;;
2299;SDS011;1158;48.750;9.078;2022-11-20T12:21:08;4.10;;;1.57;;
2299;SDS011;1158;48.750;9.078;2022-11-20T12:23:47;3.63;;;1.37;;
2299;SDS011;1158;48.750;9.078;2022-11-20T12:26:43;3.47;;;1.43;;
2299;SDS011;1158;48.750;9.078;2022-11-20T12:29:23;3.30;;;1.33;;
2299;SDS011;1158;48.750;9.078;2022-11-20T12:32:10;4.33;;;1.23;;
2299;SDS011;1158;48.750;9.078;2022-11-20T12:34:56;3.83;;;1.40;;
2299;SDS011;1158;48.750;9.078;2022-11-20T12:37:33;2.50;;;1.23;;
2299;SDS011;1158;48.750;9.078;2022-11-20T12:40:14;4.03;;;1.43;;
2299;SDS011;1158;48.750;9.078;2022-11-20T12:42:52;3.83;;;1.63;;
2299;SDS011;1158;48.750;9.078;2022-11-20T12:48:51;2.90;;;1.20;;
2299;SDS011;1158;48.750;9.078;2022-11-20T12:51:39;4.53;;;1.33;;
2299;SDS011;1158;48.750;9.078;2022-11-20T12:54:28;2.37;;;1.17;;
2299;SDS011;1158;48.750;9.078;2022-11-20T12:57:13;5.47;;;1.37;;
2299;SDS011;1158;48.750;9.078;2022-11-20T12:59:49;5.20;;;1.40;;
2299;SDS011;1158;48.750;9.078;2022-11-20T13:02:42;2.83;;;1.00;;
2299;SDS011;1158;48.750;9.078;2022-11-20T13:05:24;3.60;;;1.20;;
2299;SDS011;1158;48.750;9.078;2022-11-20T13:07:57;3.67;;;1.40;;
2299;SDS011;1158;48.750;9.078;2022-11-20T13:10:28;6.47;;;1.20;;
2299;SDS011;1158;48.750;9.078;2022-11-20T13:13:03;1.93;;;1.03;;
2299;SDS011;1158;48.750;9.078;2022-11-20T13:15:42;2.57;;;1.30;;
2299;SDS011;1158;48.750;9.078;2022-11-20T13:18:15;1.90;;;1.20;;
2299;SDS011;1158;48.750;9.078;2022-11-20T13:20:42;3.73;;;1.00;;
2299;SDS011;1158;48.750;9.078;2022-11-20T13:23:10;6.50;;;1.77;;
2299;SDS011;1158;48.750;9.078;2022-11-20T13:25:37;8.10;;;1.60;;
2299;SDS011;1158;48.750;9.078;2022-11-20T13:30:55;3.00;;;1.20;;
2299;SDS011;1158;48.750;9.078;2022-11-20T13:33:25;3.53;;;1.33;;
2299;SDS011;1158;48.750;9.078;2022-11-20T13:35:56;4.67;;;1.80;;
2299;SDS011;1158;48.750;9.078;2022-11-20T13:38:24;2.63;;;1.23;;
2299;SDS011;1158;48.750;9.078;2022-11-20T13:40:52;6.40;;;1.10;;
2299;SDS011;1158;48.750;9.078;2022-11-20T13:43:28;2.13;;;1.20;;
2299;SDS011;1158;48.750;9.078;2022-11-20T13:46:02;7.00;;;1.47;;
2299;SDS011;1158;48.750;9.078;2022-11-20T13:48:31;7.83;;;1.27;;
2299;SDS011;1158;48.750;9.078;2022-11-20T13:51:04;2.80;;;1.33;;
2299;SDS011;1158;48.750;9.078;2022-11-20T13:53:49;5.70;;;1.20;;
2299;SDS011;1158;48.750;9.078;2022-11-20T13:56:34;3.17;;;1.57;;
2299;SDS011;1158;48.750;9.078;2022-11-20T13:59:12;2.27;;;1.33;;
2299;SDS011;1158;48.750;9.078;2022-11-20T14:01:49;3.40;;;1.50;;
2299;SDS011;1158;48.750;9.078;2022-11-20T14:04:18;2.50;;;1.20;;
2299;SDS011;1158;48.750;9.078;2022-11-20T14:06:49;2.30;;;1.50;;
2299;SDS011;1158;48.750;9.078;2022-11-20T14:09:25;4.23;;;1.50;;
2299;SDS011;1158;48.750;9.078;2022-11-20T14:11:53;3.77;;;1.87;;
2299;SDS011;1158;48.750;9.078;2022-11-20T14:14:22;2.63;;;1.50;;
2299;SDS011;1158;48.750;9.078;2022-11-20T14:16:50;2.33;;;1.27;;
2299;SDS011;1158;48.750;9.078;2022-11-20T14:22:16;3.80;;;1.53;;
2299;SDS011;1158;48.750;9.078;2022-11-20T14:24:45;5.57;;;2.20;;
2299;SDS011;1158;48.750;9.078;2022-11-20T14:27:13;5.07;;;2.70;;
2299;SDS011;1158;48.750;9.078;2022-11-20T14:29:43;4.17;;;2.10;;
2299;SDS011;1158;48.750;9.078;2022-11-20T14:32:12;4.47;;;1.90;;
2299;SDS011;1158;48.750;9.078;2022-11-20T14:34:43;5.93;;;3.00;;
2299;SDS011;1158;48.750;9.078;2022-11-20T14:37:11;6.37;;;1.60;;
2299;SDS011;1158;48.750;9.078;2022-11-20T14:39:40;5.00;;;1.80;;
2299;SDS011;1158;48.750;9.078;2022-11-20T14:42:14;4.30;;;1.93;;
2299;SDS011;1158;48.750;9.078;2022-11-20T14:44:41;2.97;;;1.23;;
2299;SDS011;1158;48.750;9.078;2022-11-20T14:47:11;2.47;;;1.40;;
2299;SDS011;1158;48.750;9.078;2022-11-20T14:49:39;7.20;;;2.20;;
2299;SDS011;1158;48.750;9.078;2022-11-20T14:52:10;4.63;;;1.73;;
2299;SDS011;1158;48.750;9.078;2022-11-20T14:54:43;6.70;;;3.33;;
2299;SDS011;1158;48.750;9.078;2022-11-20T14:57:19;2.40;;;1.73;;
2299;SDS011;1158;48.750;9.078;2022-11-20T14:59:49;3.20;;;1.80;;
2299;SDS011;1158;48.750;9.078;2022-11-20T15:02:16;5.87;;;1.80;;
2299;SDS011;1158;48.750;9.078;2022-11-20T15:04:46;39.40;;;23.13;;
2299;SDS011;1158;48.750;9.078;2022-11-20T15:07:23;5.73;;;3.40;;
2299;SDS011;1158;48.750;9.078;2022-11-20T15:09:59;6.53;;;1.93;;
2299;SDS011;1158;48.750;9.078;2022-11-20T15:12:30;11.97;;;6.23;;
2299;SDS011;1158;48.750;9.078;2022-11-20T15:14:59;7.00;;;2.90;;
2299;SDS011;1158;48.750;9.078;2022-11-20T15:17:28;4.20;;;2.43;;
2299;SDS011;1158;48.750;9.078;2022-11-20T15:19:56;23.03;;;11.03;;
2299;SDS011;1158;48.750;9.078;2022-11-20T15:22:23;31.73;;;12.60;;
2299;SDS011;1158;48.750;9.078;2022-11-20T15:24:50;5.93;;;2.30;;
2299;SDS011;1158;48.750;9.078;2022-11-20T15:27:17;5.07;;;1.83;;
2299;SDS011;1158;48.750;9.078;2022-11-20T15:29:43;3.40;;;2.00;;
2299;SDS011;1158;48.750;9.078;2022-11-20T15:32:11;3.13;;;2.00;;
2299;SDS011;1158;48.750;9.078;2022-11-20T15:34:38;3.40;;;2.50;;
2299;SDS011;1158;48.750;9.078;2022-11-20T15:37:05;5.03;;;2.83;;
2299;SDS011;1158;48.750;9.078;2022-11-20T15:39:32;6.03;;;1.90;;